sensor_id;sensor_type;location;lat;lon;timestamp;temperature;humidity
758;DHT22;363;48.764;9.172;2023-04-19T00:01:24;12.10;99.90
758;DHT22;363;48.764;9.172;2023-04-19T00:03:50;12.00;99.90
758;DHT22;363;48.764;9.172;2023-04-19T00:06:15;11.80;99.90
758;DHT22;363;48.764;9.172;2023-04-19T00:08:42;12.00;99.90
758;DHT22;363;48.764;9.172;2023-04-19T00:11:08;11.90;99.90
758;DHT22;363;48.764;9.172;2023-04-19T00:13:34;11.90;99.90
758;DHT22;363;48.764;9.172;2023-04-19T00:16:00;12.00;99.90
758;DHT22;363;48.764;9.172;2023-04-19T00:18:26;11.90;99.90
758;DHT22;363;48.764;9.172;2023-04-19T00:20:52;12.10;99.90
758;DHT22;363;48.764;9.172;2023-04-19T00:23:17;11.90;99.90
758;DHT22;363;48.764;9.172;2023-04-19T00:25:45;12.10;99.90
758;DHT22;363;48.764;9.172;2023-04-19T00:28:11;12.00;99.90
758;DHT22;363;48.764;9.172;2023-04-19T00:30:36;11.80;99.90
758;DHT22;363;48.764;9.172;2023-04-19T00:33:02;11.70;99.90
758;DHT22;363;48.764;9.172;2023-04-19T00:35:28;11.80;99.90
758;DHT22;363;48.764;9.172;2023-04-19T00:37:53;12.00;99.90
758;DHT22;363;48.764;9.172;2023-04-19T00:40:19;11.90;99.90
758;DHT22;363;48.764;9.172;2023-04-19T00:42:44;11.80;99.90
758;DHT22;363;48.764;9.172;2023-04-19T00:45:10;11.70;99.90
758;DHT22;363;48.764;9.172;2023-04-19T00:47:37;11.90;99.90
758;DHT22;363;48.764;9.172;2023-04-19T00:50:03;12.00;99.90
758;DHT22;363;48.764;9.172;2023-04-19T00:52:29;11.90;99.90
758;DHT22;363;48.764;9.172;2023-04-19T00:54:54;11.80;99.90
758;DHT22;363;48.764;9.172;2023-04-19T00:57:22;12.00;99.90
758;DHT22;363;48.764;9.172;2023-04-19T00:59:50;11.70;99.90
758;DHT22;363;48.764;9.172;2023-04-19T01:02:16;11.60;99.90
758;DHT22;363;48.764;9.172;2023-04-19T01:04:42;12.10;99.90
758;DHT22;363;48.764;9.172;2023-04-19T01:07:08;12.10;99.90
758;DHT22;363;48.764;9.172;2023-04-19T01:09:33;11.70;99.90
758;DHT22;363;48.764;9.172;2023-04-19T01:12:00;11.80;99.90
758;DHT22;363;48.764;9.172;2023-04-19T01:14:26;12.00;99.90
758;DHT22;363;48.764;9.172;2023-04-19T01:16:52;11.80;99.90
758;DHT22;363;48.764;9.172;2023-04-19T01:19:18;11.60;99.90
758;DHT22;363;48.764;9.172;2023-04-19T01:21:44;11.70;99.90
758;DHT22;363;48.764;9.172;2023-04-19T01:24:10;11.80;99.90
758;DHT22;363;48.764;9.172;2023-04-19T01:26:36;11.70;99.90
758;DHT22;363;48.764;9.172;2023-04-19T01:29:02;11.80;99.90
758;DHT22;363;48.764;9.172;2023-04-19T01:31:27;11.50;99.90
758;DHT22;363;48.764;9.172;2023-04-19T01:33:53;11.50;99.90
758;DHT22;363;48.764;9.172;2023-04-19T01:36:19;11.50;99.90
758;DHT22;363;48.764;9.172;2023-04-19T01:38:45;11.10;99.90
758;DHT22;363;48.764;9.172;2023-04-19T01:41:12;11.70;99.90
758;DHT22;363;48.764;9.172;2023-04-19T01:43:39;11.80;99.90
758;DHT22;363;48.764;9.172;2023-04-19T01:46:06;11.70;99.90
758;DHT22;363;48.764;9.172;2023-04-19T01:48:32;11.60;99.90
758;DHT22;363;48.764;9.172;2023-04-19T01:50:58;11.70;99.90
758;DHT22;363;48.764;9.172;2023-04-19T01:53:23;11.60;99.90
758;DHT22;363;48.764;9.172;2023-04-19T01:55:49;11.80;99.90
758;DHT22;363;48.764;9.172;2023-04-19T01:58:15;11.80;99.90
758;DHT22;363;48.764;9.172;2023-04-19T02:22:12;11.60;99.90
758;DHT22;363;48.764;9.172;2023-04-19T02:24:38;11.50;99.90
758;DHT22;363;48.764;9.172;2023-04-19T02:27:04;11.60;99.90
758;DHT22;363;48.764;9.172;2023-04-19T02:29:30;11.80;99.90
758;DHT22;363;48.764;9.172;2023-04-19T02:31:57;11.50;99.90
758;DHT22;363;48.764;9.172;2023-04-19T02:34:22;11.40;99.90
758;DHT22;363;48.764;9.172;2023-04-19T02:36:48;11.30;99.90
758;DHT22;363;48.764;9.172;2023-04-19T02:39:14;11.70;99.90
758;DHT22;363;48.764;9.172;2023-04-19T02:41:40;11.70;99.90
758;DHT22;363;48.764;9.172;2023-04-19T02:44:05;11.40;99.90
758;DHT22;363;48.764;9.172;2023-04-19T02:46:31;11.40;99.90
758;DHT22;363;48.764;9.172;2023-04-19T02:48:57;11.50;99.90
758;DHT22;363;48.764;9.172;2023-04-19T02:51:24;11.60;99.90
758;DHT22;363;48.764;9.172;2023-04-19T02:53:51;11.30;99.90
758;DHT22;363;48.764;9.172;2023-04-19T02:56:17;11.20;99.90
758;DHT22;363;48.764;9.172;2023-04-19T02:58:43;11.20;99.90
758;DHT22;363;48.764;9.172;2023-04-19T03:01:09;11.30;99.90
758;DHT22;363;48.764;9.172;2023-04-19T03:03:35;11.50;99.90
758;DHT22;363;48.764;9.172;2023-04-19T03:06:01;11.10;99.90
758;DHT22;363;48.764;9.172;2023-04-19T03:08:27;11.20;99.90
758;DHT22;363;48.764;9.172;2023-04-19T03:10:53;11.20;99.90
758;DHT22;363;48.764;9.172;2023-04-19T03:13:18;10.90;99.90
758;DHT22;363;48.764;9.172;2023-04-19T03:15:44;11.10;99.90
758;DHT22;363;48.764;9.172;2023-04-19T03:18:09;11.00;99.90
758;DHT22;363;48.764;9.172;2023-04-19T03:20:35;10.90;99.90
758;DHT22;363;48.764;9.172;2023-04-19T03:23:01;10.90;99.90
758;DHT22;363;48.764;9.172;2023-04-19T03:25:26;10.60;99.90
758;DHT22;363;48.764;9.172;2023-04-19T03:27:52;10.90;99.90
758;DHT22;363;48.764;9.172;2023-04-19T03:30:18;11.10;99.90
758;DHT22;363;48.764;9.172;2023-04-19T03:32:44;10.80;99.90
758;DHT22;363;48.764;9.172;2023-04-19T03:35:10;11.00;99.90
758;DHT22;363;48.764;9.172;2023-04-19T03:37:36;11.20;99.90
758;DHT22;363;48.764;9.172;2023-04-19T03:40:01;11.10;99.90
758;DHT22;363;48.764;9.172;2023-04-19T03:42:27;11.00;99.90
758;DHT22;363;48.764;9.172;2023-04-19T03:44:53;11.20;99.90
758;DHT22;363;48.764;9.172;2023-04-19T03:47:19;11.00;99.90
758;DHT22;363;48.764;9.172;2023-04-19T03:49:44;11.00;99.90
758;DHT22;363;48.764;9.172;2023-04-19T03:52:10;11.20;99.90
758;DHT22;363;48.764;9.172;2023-04-19T03:54:36;10.90;99.90
758;DHT22;363;48.764;9.172;2023-04-19T03:57:01;11.00;99.90
758;DHT22;363;48.764;9.172;2023-04-19T03:59:27;10.90;99.90
758;DHT22;363;48.764;9.172;2023-04-19T04:01:53;10.90;99.90
758;DHT22;363;48.764;9.172;2023-04-19T04:04:19;10.90;99.90
758;DHT22;363;48.764;9.172;2023-04-19T04:06:45;10.80;99.90
758;DHT22;363;48.764;9.172;2023-04-19T04:09:10;10.90;99.90
758;DHT22;363;48.764;9.172;2023-04-19T04:11:36;11.10;99.90
758;DHT22;363;48.764;9.172;2023-04-19T04:14:03;10.80;99.90
758;DHT22;363;48.764;9.172;2023-04-19T04:16:28;10.90;99.90
758;DHT22;363;48.764;9.172;2023-04-19T04:18:54;10.90;99.90
758;DHT22;363;48.764;9.172;2023-04-19T04:21:20;10.80;99.90
758;DHT22;363;48.764;9.172;2023-04-19T04:23:45;10.70;99.90
758;DHT22;363;48.764;9.172;2023-04-19T04:26:12;10.80;99.90
758;DHT22;363;48.764;9.172;2023-04-19T04:28:38;10.80;99.90
758;DHT22;363;48.764;9.172;2023-04-19T04:31:04;10.60;99.90
758;DHT22;363;48.764;9.172;2023-04-19T04:33:30;11.00;99.90
758;DHT22;363;48.764;9.172;2023-04-19T04:35:55;10.90;99.90
758;DHT22;363;48.764;9.172;2023-04-19T04:38:23;10.80;99.90
758;DHT22;363;48.764;9.172;2023-04-19T04:40:52;11.00;99.90
758;DHT22;363;48.764;9.172;2023-04-19T04:43:23;10.80;99.90
758;DHT22;363;48.764;9.172;2023-04-19T04:45:50;10.60;99.90
758;DHT22;363;48.764;9.172;2023-04-19T04:48:16;10.50;99.90
758;DHT22;363;48.764;9.172;2023-04-19T04:50:42;10.70;99.90
758;DHT22;363;48.764;9.172;2023-04-19T04:53:08;10.80;99.90
758;DHT22;363;48.764;9.172;2023-04-19T04:55:36;10.70;99.90
758;DHT22;363;48.764;9.172;2023-04-19T04:58:02;10.60;99.90
758;DHT22;363;48.764;9.172;2023-04-19T05:00:30;10.80;99.90
758;DHT22;363;48.764;9.172;2023-04-19T05:02:56;10.70;99.90
758;DHT22;363;48.764;9.172;2023-04-19T05:05:22;10.70;99.90
758;DHT22;363;48.764;9.172;2023-04-19T05:07:47;10.70;99.90
758;DHT22;363;48.764;9.172;2023-04-19T05:10:13;10.90;99.90
758;DHT22;363;48.764;9.172;2023-04-19T05:12:40;10.90;99.90
758;DHT22;363;48.764;9.172;2023-04-19T05:15:06;10.40;99.90
758;DHT22;363;48.764;9.172;2023-04-19T05:17:32;10.90;99.90
758;DHT22;363;48.764;9.172;2023-04-19T05:19:58;10.60;99.90
758;DHT22;363;48.764;9.172;2023-04-19T05:22:24;10.90;99.90
758;DHT22;363;48.764;9.172;2023-04-19T05:24:50;10.70;99.90
758;DHT22;363;48.764;9.172;2023-04-19T05:27:15;10.90;99.90
758;DHT22;363;48.764;9.172;2023-04-19T05:29:41;10.60;99.90
758;DHT22;363;48.764;9.172;2023-04-19T05:32:07;10.70;99.90
758;DHT22;363;48.764;9.172;2023-04-19T05:34:33;10.80;99.90
758;DHT22;363;48.764;9.172;2023-04-19T05:36:59;10.60;99.90
758;DHT22;363;48.764;9.172;2023-04-19T05:39:25;10.70;99.90
758;DHT22;363;48.764;9.172;2023-04-19T05:41:50;10.70;99.90
758;DHT22;363;48.764;9.172;2023-04-19T05:44:16;10.90;99.90
758;DHT22;363;48.764;9.172;2023-04-19T05:46:42;10.80;99.90
758;DHT22;363;48.764;9.172;2023-04-19T05:49:08;11.00;99.90
758;DHT22;363;48.764;9.172;2023-04-19T05:51:33;11.10;99.90
758;DHT22;363;48.764;9.172;2023-04-19T05:53:59;10.80;99.90
758;DHT22;363;48.764;9.172;2023-04-19T05:56:25;11.20;99.90
758;DHT22;363;48.764;9.172;2023-04-19T05:58:51;10.80;99.90
758;DHT22;363;48.764;9.172;2023-04-19T06:01:17;10.90;99.90
758;DHT22;363;48.764;9.172;2023-04-19T06:03:43;10.70;99.90
758;DHT22;363;48.764;9.172;2023-04-19T06:06:08;10.80;99.90
758;DHT22;363;48.764;9.172;2023-04-19T06:08:34;10.80;99.90
758;DHT22;363;48.764;9.172;2023-04-19T06:11:00;11.00;99.90
758;DHT22;363;48.764;9.172;2023-04-19T06:13:26;11.10;99.90
758;DHT22;363;48.764;9.172;2023-04-19T06:15:51;11.00;99.90
758;DHT22;363;48.764;9.172;2023-04-19T06:18:17;11.00;99.90
758;DHT22;363;48.764;9.172;2023-04-19T06:20:42;11.10;99.90
758;DHT22;363;48.764;9.172;2023-04-19T06:23:08;11.20;99.90
758;DHT22;363;48.764;9.172;2023-04-19T06:25:34;10.60;99.90
758;DHT22;363;48.764;9.172;2023-04-19T06:28:00;11.00;99.90
758;DHT22;363;48.764;9.172;2023-04-19T06:30:26;11.10;99.90
758;DHT22;363;48.764;9.172;2023-04-19T06:32:51;11.20;99.90
758;DHT22;363;48.764;9.172;2023-04-19T06:35:17;10.80;99.90
758;DHT22;363;48.764;9.172;2023-04-19T06:37:43;11.40;99.90
758;DHT22;363;48.764;9.172;2023-04-19T06:40:09;11.40;99.90
758;DHT22;363;48.764;9.172;2023-04-19T06:42:36;11.30;99.90
758;DHT22;363;48.764;9.172;2023-04-19T06:45:02;11.90;99.90
758;DHT22;363;48.764;9.172;2023-04-19T06:47:29;11.70;99.90
758;DHT22;363;48.764;9.172;2023-04-19T06:49:55;11.70;99.90
758;DHT22;363;48.764;9.172;2023-04-19T06:52:21;12.00;99.90
758;DHT22;363;48.764;9.172;2023-04-19T06:54:48;11.90;99.90
758;DHT22;363;48.764;9.172;2023-04-19T06:57:14;11.70;99.90
758;DHT22;363;48.764;9.172;2023-04-19T06:59:39;11.90;99.90
758;DHT22;363;48.764;9.172;2023-04-19T07:02:05;11.90;99.90
758;DHT22;363;48.764;9.172;2023-04-19T07:04:31;11.80;99.90
758;DHT22;363;48.764;9.172;2023-04-19T07:06:57;12.00;99.90
758;DHT22;363;48.764;9.172;2023-04-19T07:09:23;12.10;99.90
758;DHT22;363;48.764;9.172;2023-04-19T07:11:49;11.90;99.90
758;DHT22;363;48.764;9.172;2023-04-19T07:14:16;12.00;99.90
758;DHT22;363;48.764;9.172;2023-04-19T07:16:44;12.40;99.90
758;DHT22;363;48.764;9.172;2023-04-19T07:19:09;12.40;99.90
758;DHT22;363;48.764;9.172;2023-04-19T07:21:35;12.20;99.90
758;DHT22;363;48.764;9.172;2023-04-19T07:24:02;12.50;99.90
758;DHT22;363;48.764;9.172;2023-04-19T07:26:28;12.40;99.90
758;DHT22;363;48.764;9.172;2023-04-19T07:28:54;12.70;99.90
758;DHT22;363;48.764;9.172;2023-04-19T07:31:20;12.70;99.90
758;DHT22;363;48.764;9.172;2023-04-19T07:33:46;12.70;99.90
758;DHT22;363;48.764;9.172;2023-04-19T07:36:11;12.90;99.90
758;DHT22;363;48.764;9.172;2023-04-19T07:38:38;13.00;99.90
758;DHT22;363;48.764;9.172;2023-04-19T07:41:04;13.20;99.90
758;DHT22;363;48.764;9.172;2023-04-19T07:43:30;13.20;99.90
758;DHT22;363;48.764;9.172;2023-04-19T07:45:56;13.30;99.90
758;DHT22;363;48.764;9.172;2023-04-19T07:48:21;13.40;99.90
758;DHT22;363;48.764;9.172;2023-04-19T07:50:47;13.50;99.90
758;DHT22;363;48.764;9.172;2023-04-19T07:53:13;13.60;99.90
758;DHT22;363;48.764;9.172;2023-04-19T07:55:38;13.40;99.90
758;DHT22;363;48.764;9.172;2023-04-19T07:58:04;13.60;99.80
758;DHT22;363;48.764;9.172;2023-04-19T08:00:30;14.00;99.60
758;DHT22;363;48.764;9.172;2023-04-19T08:02:56;14.30;99.10
758;DHT22;363;48.764;9.172;2023-04-19T08:05:22;15.10;97.60
758;DHT22;363;48.764;9.172;2023-04-19T08:07:51;15.20;97.20
758;DHT22;363;48.764;9.172;2023-04-19T08:10:18;15.30;96.40
758;DHT22;363;48.764;9.172;2023-04-19T08:12:43;15.40;96.50
758;DHT22;363;48.764;9.172;2023-04-19T08:15:09;15.50;95.70
758;DHT22;363;48.764;9.172;2023-04-19T08:17:35;15.30;95.60
758;DHT22;363;48.764;9.172;2023-04-19T08:20:00;15.30;95.70
758;DHT22;363;48.764;9.172;2023-04-19T08:22:26;15.50;95.70
758;DHT22;363;48.764;9.172;2023-04-19T08:24:52;15.70;95.40
758;DHT22;363;48.764;9.172;2023-04-19T08:27:19;15.70;95.00
758;DHT22;363;48.764;9.172;2023-04-19T08:29:45;15.80;94.70
758;DHT22;363;48.764;9.172;2023-04-19T08:32:11;15.40;94.90
758;DHT22;363;48.764;9.172;2023-04-19T08:34:38;15.20;95.20
758;DHT22;363;48.764;9.172;2023-04-19T08:37:04;15.00;95.70
758;DHT22;363;48.764;9.172;2023-04-19T08:39:31;15.10;94.90
758;DHT22;363;48.764;9.172;2023-04-19T08:42:05;14.90;94.70
758;DHT22;363;48.764;9.172;2023-04-19T08:44:31;15.00;94.70
758;DHT22;363;48.764;9.172;2023-04-19T08:47:00;15.30;94.80
758;DHT22;363;48.764;9.172;2023-04-19T08:49:30;15.20;94.00
758;DHT22;363;48.764;9.172;2023-04-19T08:51:59;15.70;93.90
758;DHT22;363;48.764;9.172;2023-04-19T08:54:30;16.00;92.60
758;DHT22;363;48.764;9.172;2023-04-19T08:56:57;16.20;92.20
758;DHT22;363;48.764;9.172;2023-04-19T08:59:23;16.00;92.00
758;DHT22;363;48.764;9.172;2023-04-19T09:01:49;15.70;92.30
758;DHT22;363;48.764;9.172;2023-04-19T09:04:14;15.30;92.90
758;DHT22;363;48.764;9.172;2023-04-19T09:06:40;15.10;93.20
758;DHT22;363;48.764;9.172;2023-04-19T09:09:20;15.00;93.40
758;DHT22;363;48.764;9.172;2023-04-19T09:11:46;14.90;93.70
758;DHT22;363;48.764;9.172;2023-04-19T09:14:14;15.40;92.90
758;DHT22;363;48.764;9.172;2023-04-19T09:16:41;15.60;92.30
758;DHT22;363;48.764;9.172;2023-04-19T09:19:07;16.60;92.20
758;DHT22;363;48.764;9.172;2023-04-19T09:21:41;17.30;89.30
758;DHT22;363;48.764;9.172;2023-04-19T09:24:07;17.60;87.90
758;DHT22;363;48.764;9.172;2023-04-19T09:26:33;18.10;86.90
758;DHT22;363;48.764;9.172;2023-04-19T09:31:33;18.10;85.50
758;DHT22;363;48.764;9.172;2023-04-19T09:34:31;17.90;86.50
758;DHT22;363;48.764;9.172;2023-04-19T09:36:57;17.90;86.50
758;DHT22;363;48.764;9.172;2023-04-19T09:39:32;18.00;86.80
758;DHT22;363;48.764;9.172;2023-04-19T09:41:58;18.20;86.90
758;DHT22;363;48.764;9.172;2023-04-19T09:44:24;18.70;86.20
758;DHT22;363;48.764;9.172;2023-04-19T09:46:49;18.80;84.60
758;DHT22;363;48.764;9.172;2023-04-19T09:49:22;18.90;83.70
758;DHT22;363;48.764;9.172;2023-04-19T09:51:55;18.50;85.20
758;DHT22;363;48.764;9.172;2023-04-19T09:54:22;18.20;85.20
758;DHT22;363;48.764;9.172;2023-04-19T09:56:49;18.50;85.80
758;DHT22;363;48.764;9.172;2023-04-19T09:59:15;19.10;84.40
758;DHT22;363;48.764;9.172;2023-04-19T10:02:07;19.10;81.10
758;DHT22;363;48.764;9.172;2023-04-19T10:04:35;18.30;81.50
758;DHT22;363;48.764;9.172;2023-04-19T10:07:01;18.40;84.00
758;DHT22;363;48.764;9.172;2023-04-19T10:09:27;18.10;83.40
758;DHT22;363;48.764;9.172;2023-04-19T10:11:54;18.00;84.70
758;DHT22;363;48.764;9.172;2023-04-19T10:14:23;18.60;84.30
758;DHT22;363;48.764;9.172;2023-04-19T10:16:49;18.00;83.80
758;DHT22;363;48.764;9.172;2023-04-19T10:19:19;18.10;83.40
758;DHT22;363;48.764;9.172;2023-04-19T10:21:47;17.30;84.50
758;DHT22;363;48.764;9.172;2023-04-19T10:24:14;17.60;85.20
758;DHT22;363;48.764;9.172;2023-04-19T10:29:56;17.80;85.70
758;DHT22;363;48.764;9.172;2023-04-19T10:32:26;18.40;84.00
758;DHT22;363;48.764;9.172;2023-04-19T10:34:52;18.50;83.40
758;DHT22;363;48.764;9.172;2023-04-19T10:37:22;18.30;84.10
758;DHT22;363;48.764;9.172;2023-04-19T10:39:48;18.30;84.30
758;DHT22;363;48.764;9.172;2023-04-19T10:42:14;18.30;84.10
758;DHT22;363;48.764;9.172;2023-04-19T10:44:40;18.00;85.30
758;DHT22;363;48.764;9.172;2023-04-19T10:47:06;17.60;86.00
758;DHT22;363;48.764;9.172;2023-04-19T10:49:43;17.40;86.20
758;DHT22;363;48.764;9.172;2023-04-19T10:52:26;17.30;87.80
758;DHT22;363;48.764;9.172;2023-04-19T10:54:56;16.70;89.80
758;DHT22;363;48.764;9.172;2023-04-19T10:57:22;16.60;90.60
758;DHT22;363;48.764;9.172;2023-04-19T11:00:19;16.10;90.50
758;DHT22;363;48.764;9.172;2023-04-19T11:02:45;15.90;91.10
758;DHT22;363;48.764;9.172;2023-04-19T11:05:11;15.30;91.60
758;DHT22;363;48.764;9.172;2023-04-19T11:07:39;15.40;92.30
758;DHT22;363;48.764;9.172;2023-04-19T11:10:06;15.20;92.40
758;DHT22;363;48.764;9.172;2023-04-19T11:12:33;15.40;93.00
758;DHT22;363;48.764;9.172;2023-04-19T11:14:58;15.00;93.40
758;DHT22;363;48.764;9.172;2023-04-19T11:17:26;15.00;93.80
758;DHT22;363;48.764;9.172;2023-04-19T11:20:03;14.80;93.50
758;DHT22;363;48.764;9.172;2023-04-19T11:22:44;15.30;93.20
758;DHT22;363;48.764;9.172;2023-04-19T11:25:18;15.20;93.10
758;DHT22;363;48.764;9.172;2023-04-19T11:27:49;14.90;93.50
758;DHT22;363;48.764;9.172;2023-04-19T11:30:41;14.90;94.30
758;DHT22;363;48.764;9.172;2023-04-19T11:33:07;14.70;94.30
758;DHT22;363;48.764;9.172;2023-04-19T11:35:33;14.80;94.70
758;DHT22;363;48.764;9.172;2023-04-19T11:37:58;14.30;94.50
758;DHT22;363;48.764;9.172;2023-04-19T11:40:25;14.60;95.40
758;DHT22;363;48.764;9.172;2023-04-19T11:43:01;14.20;95.50
758;DHT22;363;48.764;9.172;2023-04-19T11:45:35;14.00;96.20
758;DHT22;363;48.764;9.172;2023-04-19T11:48:03;13.90;97.30
758;DHT22;363;48.764;9.172;2023-04-19T11:50:40;14.10;97.50
758;DHT22;363;48.764;9.172;2023-04-19T11:55:42;13.80;98.00
758;DHT22;363;48.764;9.172;2023-04-19T11:58:21;13.80;98.40
758;DHT22;363;48.764;9.172;2023-04-19T12:00:46;13.70;98.80
758;DHT22;363;48.764;9.172;2023-04-19T12:03:12;13.60;99.50
758;DHT22;363;48.764;9.172;2023-04-19T12:05:38;13.50;99.80
758;DHT22;363;48.764;9.172;2023-04-19T12:08:05;13.30;99.90
758;DHT22;363;48.764;9.172;2023-04-19T12:10:34;13.40;99.90
758;DHT22;363;48.764;9.172;2023-04-19T12:13:00;13.30;99.90
758;DHT22;363;48.764;9.172;2023-04-19T12:15:45;12.90;99.90
758;DHT22;363;48.764;9.172;2023-04-19T12:18:11;13.00;99.90
758;DHT22;363;48.764;9.172;2023-04-19T12:20:42;13.00;99.90
758;DHT22;363;48.764;9.172;2023-04-19T12:23:08;13.00;99.90
758;DHT22;363;48.764;9.172;2023-04-19T12:25:35;13.00;99.90
758;DHT22;363;48.764;9.172;2023-04-19T12:28:02;13.00;99.90
758;DHT22;363;48.764;9.172;2023-04-19T12:30:28;13.00;99.90
758;DHT22;363;48.764;9.172;2023-04-19T12:32:54;12.70;99.90
758;DHT22;363;48.764;9.172;2023-04-19T12:35:24;12.50;99.90
758;DHT22;363;48.764;9.172;2023-04-19T12:37:55;12.50;99.90
758;DHT22;363;48.764;9.172;2023-04-19T12:40:21;12.30;99.90
758;DHT22;363;48.764;9.172;2023-04-19T12:42:47;12.40;99.90
758;DHT22;363;48.764;9.172;2023-04-19T12:45:13;12.60;99.90
758;DHT22;363;48.764;9.172;2023-04-19T12:47:39;12.20;99.90
758;DHT22;363;48.764;9.172;2023-04-19T12:50:06;11.90;99.90
758;DHT22;363;48.764;9.172;2023-04-19T12:52:32;11.80;99.90
758;DHT22;363;48.764;9.172;2023-04-19T12:54:58;12.00;99.90
758;DHT22;363;48.764;9.172;2023-04-19T12:57:23;11.90;99.90
758;DHT22;363;48.764;9.172;2023-04-19T12:59:49;12.10;99.90
758;DHT22;363;48.764;9.172;2023-04-19T13:02:14;11.90;99.90
758;DHT22;363;48.764;9.172;2023-04-19T13:04:40;12.10;99.90
758;DHT22;363;48.764;9.172;2023-04-19T13:07:06;12.00;99.90
758;DHT22;363;48.764;9.172;2023-04-19T13:09:31;12.10;99.90
758;DHT22;363;48.764;9.172;2023-04-19T13:11:57;12.10;99.90
758;DHT22;363;48.764;9.172;2023-04-19T13:14:25;12.30;99.90
758;DHT22;363;48.764;9.172;2023-04-19T13:16:50;12.20;99.90
758;DHT22;363;48.764;9.172;2023-04-19T13:19:16;11.80;99.90
758;DHT22;363;48.764;9.172;2023-04-19T13:21:41;11.90;99.90
758;DHT22;363;48.764;9.172;2023-04-19T13:24:07;11.40;99.90
758;DHT22;363;48.764;9.172;2023-04-19T13:26:33;11.60;99.90
758;DHT22;363;48.764;9.172;2023-04-19T13:28:59;11.40;99.90
758;DHT22;363;48.764;9.172;2023-04-19T13:31:25;11.70;99.90
758;DHT22;363;48.764;9.172;2023-04-19T13:33:51;11.70;99.90
758;DHT22;363;48.764;9.172;2023-04-19T13:36:17;11.70;99.90
758;DHT22;363;48.764;9.172;2023-04-19T13:38:43;11.90;99.90
758;DHT22;363;48.764;9.172;2023-04-19T13:41:09;11.70;99.90
758;DHT22;363;48.764;9.172;2023-04-19T13:43:35;12.00;99.90
758;DHT22;363;48.764;9.172;2023-04-19T13:46:00;11.60;99.90
758;DHT22;363;48.764;9.172;2023-04-19T13:48:26;11.90;99.90
758;DHT22;363;48.764;9.172;2023-04-19T13:50:54;11.90;99.90
758;DHT22;363;48.764;9.172;2023-04-19T13:53:20;12.00;99.90
758;DHT22;363;48.764;9.172;2023-04-19T13:55:45;11.70;99.90
758;DHT22;363;48.764;9.172;2023-04-19T13:58:11;11.70;99.90
758;DHT22;363;48.764;9.172;2023-04-19T14:00:37;11.80;99.90
758;DHT22;363;48.764;9.172;2023-04-19T14:03:02;11.70;99.90
758;DHT22;363;48.764;9.172;2023-04-19T14:05:28;12.00;99.90
758;DHT22;363;48.764;9.172;2023-04-19T14:07:54;11.70;99.90
758;DHT22;363;48.764;9.172;2023-04-19T14:10:20;12.10;99.90
758;DHT22;363;48.764;9.172;2023-04-19T14:12:46;12.00;99.90
758;DHT22;363;48.764;9.172;2023-04-19T14:15:12;12.20;99.90
758;DHT22;363;48.764;9.172;2023-04-19T14:17:38;12.40;99.90
758;DHT22;363;48.764;9.172;2023-04-19T14:20:04;12.30;99.90
758;DHT22;363;48.764;9.172;2023-04-19T14:22:31;12.30;99.90
758;DHT22;363;48.764;9.172;2023-04-19T14:24:56;12.50;99.90
758;DHT22;363;48.764;9.172;2023-04-19T14:27:23;12.60;99.90
758;DHT22;363;48.764;9.172;2023-04-19T14:29:48;12.30;99.90
758;DHT22;363;48.764;9.172;2023-04-19T14:32:14;12.70;99.90
758;DHT22;363;48.764;9.172;2023-04-19T14:34:40;12.50;99.90
758;DHT22;363;48.764;9.172;2023-04-19T14:37:06;12.80;99.90
758;DHT22;363;48.764;9.172;2023-04-19T14:39:31;12.70;99.90
758;DHT22;363;48.764;9.172;2023-04-19T14:41:57;12.60;99.90
758;DHT22;363;48.764;9.172;2023-04-19T14:44:23;12.80;99.90
758;DHT22;363;48.764;9.172;2023-04-19T14:46:48;12.70;99.90
758;DHT22;363;48.764;9.172;2023-04-19T14:49:14;12.60;99.90
758;DHT22;363;48.764;9.172;2023-04-19T14:51:40;12.90;99.90
758;DHT22;363;48.764;9.172;2023-04-19T14:54:06;13.00;99.90
758;DHT22;363;48.764;9.172;2023-04-19T14:56:32;12.90;99.90
758;DHT22;363;48.764;9.172;2023-04-19T14:58:57;13.00;99.90
758;DHT22;363;48.764;9.172;2023-04-19T15:01:23;12.70;99.90
758;DHT22;363;48.764;9.172;2023-04-19T15:03:49;12.90;99.90
758;DHT22;363;48.764;9.172;2023-04-19T15:06:15;12.90;99.90
758;DHT22;363;48.764;9.172;2023-04-19T15:08:41;12.60;99.90
758;DHT22;363;48.764;9.172;2023-04-19T15:11:08;12.50;99.90
758;DHT22;363;48.764;9.172;2023-04-19T15:13:34;12.60;99.90
758;DHT22;363;48.764;9.172;2023-04-19T15:16:00;12.50;99.90
758;DHT22;363;48.764;9.172;2023-04-19T15:18:28;12.60;99.90
758;DHT22;363;48.764;9.172;2023-04-19T15:20:54;12.30;99.90
758;DHT22;363;48.764;9.172;2023-04-19T15:23:23;12.60;99.90
758;DHT22;363;48.764;9.172;2023-04-19T15:25:50;12.40;99.90
758;DHT22;363;48.764;9.172;2023-04-19T15:28:15;12.60;99.90
758;DHT22;363;48.764;9.172;2023-04-19T15:30:41;13.00;99.90
758;DHT22;363;48.764;9.172;2023-04-19T15:33:07;12.70;99.90
758;DHT22;363;48.764;9.172;2023-04-19T15:35:32;12.60;99.90
758;DHT22;363;48.764;9.172;2023-04-19T15:37:58;12.80;99.90
758;DHT22;363;48.764;9.172;2023-04-19T15:40:24;12.90;99.90
758;DHT22;363;48.764;9.172;2023-04-19T15:42:49;12.70;99.90
758;DHT22;363;48.764;9.172;2023-04-19T15:45:15;12.90;99.90
758;DHT22;363;48.764;9.172;2023-04-19T15:47:41;12.80;99.90
758;DHT22;363;48.764;9.172;2023-04-19T15:50:08;12.70;99.90
758;DHT22;363;48.764;9.172;2023-04-19T15:52:33;12.70;99.90
758;DHT22;363;48.764;9.172;2023-04-19T15:54:59;13.00;99.90
758;DHT22;363;48.764;9.172;2023-04-19T15:57:24;13.10;99.90
758;DHT22;363;48.764;9.172;2023-04-19T15:59:50;12.90;99.90
758;DHT22;363;48.764;9.172;2023-04-19T16:02:16;13.10;99.90
758;DHT22;363;48.764;9.172;2023-04-19T16:04:43;13.10;99.90
758;DHT22;363;48.764;9.172;2023-04-19T16:07:10;12.90;99.90
758;DHT22;363;48.764;9.172;2023-04-19T16:09:36;12.90;99.90
758;DHT22;363;48.764;9.172;2023-04-19T16:12:01;13.10;99.90
758;DHT22;363;48.764;9.172;2023-04-19T16:14:27;13.00;99.90
758;DHT22;363;48.764;9.172;2023-04-19T16:16:53;13.10;99.90
758;DHT22;363;48.764;9.172;2023-04-19T16:19:18;13.30;99.90
758;DHT22;363;48.764;9.172;2023-04-19T16:21:44;13.10;99.90
758;DHT22;363;48.764;9.172;2023-04-19T16:24:10;12.90;99.90
758;DHT22;363;48.764;9.172;2023-04-19T16:26:35;13.10;99.90
758;DHT22;363;48.764;9.172;2023-04-19T16:29:01;12.90;99.90
758;DHT22;363;48.764;9.172;2023-04-19T16:31:26;12.90;99.90
758;DHT22;363;48.764;9.172;2023-04-19T16:33:52;13.10;99.90
758;DHT22;363;48.764;9.172;2023-04-19T16:36:18;13.00;99.90
758;DHT22;363;48.764;9.172;2023-04-19T16:38:44;13.00;99.90
758;DHT22;363;48.764;9.172;2023-04-19T16:41:10;12.80;99.90
758;DHT22;363;48.764;9.172;2023-04-19T16:43:36;12.90;99.90
758;DHT22;363;48.764;9.172;2023-04-19T16:46:01;13.00;99.90
758;DHT22;363;48.764;9.172;2023-04-19T16:48:27;12.90;99.90
758;DHT22;363;48.764;9.172;2023-04-19T16:50:53;12.90;99.90
758;DHT22;363;48.764;9.172;2023-04-19T16:53:18;12.70;99.90
758;DHT22;363;48.764;9.172;2023-04-19T16:55:44;12.60;99.90
758;DHT22;363;48.764;9.172;2023-04-19T16:58:10;12.60;99.90
758;DHT22;363;48.764;9.172;2023-04-19T17:00:35;12.70;99.90